sensor_id;sensor_type;location;lat;lon;timestamp;temperature;humidity
16321;DHT22;8269;50.990;4.494;2022-10-16T00:01:16;13.00;99.90
16321;DHT22;8269;50.990;4.494;2022-10-16T00:03:43;13.00;99.90
16321;DHT22;8269;50.990;4.494;2022-10-16T00:06:10;13.00;99.90
16321;DHT22;8269;50.990;4.494;2022-10-16T00:08:37;13.00;99.90
16321;DHT22;8269;50.990;4.494;2022-10-16T00:11:08;13.00;99.90
16321;DHT22;8269;50.990;4.494;2022-10-16T00:13:36;13.00;99.90
16321;DHT22;8269;50.990;4.494;2022-10-16T00:16:03;13.10;99.90
16321;DHT22;8269;50.990;4.494;2022-10-16T00:18:29;13.00;99.90
16321;DHT22;8269;50.990;4.494;2022-10-16T00:20:55;13.00;99.90
16321;DHT22;8269;50.990;4.494;2022-10-16T00:23:21;13.10;99.90
16321;DHT22;8269;50.990;4.494;2022-10-16T00:25:58;13.10;99.90
16321;DHT22;8269;50.990;4.494;2022-10-16T00:28:24;13.20;99.90
16321;DHT22;8269;50.990;4.494;2022-10-16T00:30:50;13.20;99.90
16321;DHT22;8269;50.990;4.494;2022-10-16T00:33:15;13.10;99.90
16321;DHT22;8269;50.990;4.494;2022-10-16T00:35:41;13.10;99.90
16321;DHT22;8269;50.990;4.494;2022-10-16T00:38:07;13.10;99.90
16321;DHT22;8269;50.990;4.494;2022-10-16T00:40:32;13.10;99.90
16321;DHT22;8269;50.990;4.494;2022-10-16T00:42:58;13.20;99.90
16321;DHT22;8269;50.990;4.494;2022-10-16T00:45:24;13.20;99.90
16321;DHT22;8269;50.990;4.494;2022-10-16T00:47:51;13.20;99.90
16321;DHT22;8269;50.990;4.494;2022-10-16T00:50:28;13.30;99.90
16321;DHT22;8269;50.990;4.494;2022-10-16T00:52:56;13.30;99.90
16321;DHT22;8269;50.990;4.494;2022-10-16T00:55:22;13.40;99.90
16321;DHT22;8269;50.990;4.494;2022-10-16T00:57:49;13.40;99.90
16321;DHT22;8269;50.990;4.494;2022-10-16T01:00:19;13.40;99.90
16321;DHT22;8269;50.990;4.494;2022-10-16T01:02:55;13.50;99.90
16321;DHT22;8269;50.990;4.494;2022-10-16T01:05:23;13.40;99.90
16321;DHT22;8269;50.990;4.494;2022-10-16T01:21:17;13.30;99.90
16321;DHT22;8269;50.990;4.494;2022-10-16T01:29:55;13.30;99.90
16321;DHT22;8269;50.990;4.494;2022-10-16T01:32:38;13.20;99.90
16321;DHT22;8269;50.990;4.494;2022-10-16T01:35:31;13.20;99.90
16321;DHT22;8269;50.990;4.494;2022-10-16T01:38:05;13.20;99.90
16321;DHT22;8269;50.990;4.494;2022-10-16T01:40:34;13.30;99.90
16321;DHT22;8269;50.990;4.494;2022-10-16T01:43:20;13.20;99.90
16321;DHT22;8269;50.990;4.494;2022-10-16T01:45:47;13.20;99.90
16321;DHT22;8269;50.990;4.494;2022-10-16T01:48:17;13.20;99.90
16321;DHT22;8269;50.990;4.494;2022-10-16T01:50:48;13.20;99.90
16321;DHT22;8269;50.990;4.494;2022-10-16T01:53:16;13.20;99.90
16321;DHT22;8269;50.990;4.494;2022-10-16T01:55:45;13.20;99.90
16321;DHT22;8269;50.990;4.494;2022-10-16T01:58:13;13.20;99.90
16321;DHT22;8269;50.990;4.494;2022-10-16T02:00:42;13.20;99.90
16321;DHT22;8269;50.990;4.494;2022-10-16T02:03:10;13.10;99.90
16321;DHT22;8269;50.990;4.494;2022-10-16T02:05:56;13.10;99.90
16321;DHT22;8269;50.990;4.494;2022-10-16T02:08:24;13.10;99.90
16321;DHT22;8269;50.990;4.494;2022-10-16T02:10:51;13.00;99.90
16321;DHT22;8269;50.990;4.494;2022-10-16T02:13:21;13.00;99.90
16321;DHT22;8269;50.990;4.494;2022-10-16T02:15:47;13.00;99.90
16321;DHT22;8269;50.990;4.494;2022-10-16T02:18:13;13.00;99.90
16321;DHT22;8269;50.990;4.494;2022-10-16T02:20:52;13.00;99.90
16321;DHT22;8269;50.990;4.494;2022-10-16T02:23:36;13.00;99.90
16321;DHT22;8269;50.990;4.494;2022-10-16T02:26:07;13.00;99.90
16321;DHT22;8269;50.990;4.494;2022-10-16T02:28:46;13.00;99.90
16321;DHT22;8269;50.990;4.494;2022-10-16T02:31:18;13.00;99.90
16321;DHT22;8269;50.990;4.494;2022-10-16T02:33:46;13.00;99.90
16321;DHT22;8269;50.990;4.494;2022-10-16T02:36:12;13.10;99.90
16321;DHT22;8269;50.990;4.494;2022-10-16T02:38:40;13.00;99.90
16321;DHT22;8269;50.990;4.494;2022-10-16T02:41:05;13.00;99.90
16321;DHT22;8269;50.990;4.494;2022-10-16T02:43:31;13.00;99.90
16321;DHT22;8269;50.990;4.494;2022-10-16T02:45:59;13.00;99.90
16321;DHT22;8269;50.990;4.494;2022-10-16T02:48:24;13.00;99.90
16321;DHT22;8269;50.990;4.494;2022-10-16T02:50:50;13.00;99.90
16321;DHT22;8269;50.990;4.494;2022-10-16T02:53:16;13.00;99.90
16321;DHT22;8269;50.990;4.494;2022-10-16T02:55:42;13.00;99.90
16321;DHT22;8269;50.990;4.494;2022-10-16T02:58:07;13.00;99.90
16321;DHT22;8269;50.990;4.494;2022-10-16T03:00:33;13.00;99.90
16321;DHT22;8269;50.990;4.494;2022-10-16T03:02:58;13.00;99.90
16321;DHT22;8269;50.990;4.494;2022-10-16T03:05:24;13.10;99.90
16321;DHT22;8269;50.990;4.494;2022-10-16T03:07:50;13.10;99.90
16321;DHT22;8269;50.990;4.494;2022-10-16T03:10:15;13.10;99.90
16321;DHT22;8269;50.990;4.494;2022-10-16T03:12:41;13.10;99.90
16321;DHT22;8269;50.990;4.494;2022-10-16T03:15:07;13.10;99.90
16321;DHT22;8269;50.990;4.494;2022-10-16T03:17:33;13.10;99.90
16321;DHT22;8269;50.990;4.494;2022-10-16T03:19:58;13.10;99.90
16321;DHT22;8269;50.990;4.494;2022-10-16T03:22:24;13.20;99.90
16321;DHT22;8269;50.990;4.494;2022-10-16T03:24:49;13.20;99.90
16321;DHT22;8269;50.990;4.494;2022-10-16T03:27:15;13.20;99.90
16321;DHT22;8269;50.990;4.494;2022-10-16T03:29:41;13.20;99.90
16321;DHT22;8269;50.990;4.494;2022-10-16T03:32:06;13.20;99.90
16321;DHT22;8269;50.990;4.494;2022-10-16T03:34:32;13.20;99.90
16321;DHT22;8269;50.990;4.494;2022-10-16T03:36:57;13.20;99.90
16321;DHT22;8269;50.990;4.494;2022-10-16T03:39:23;13.20;99.90
16321;DHT22;8269;50.990;4.494;2022-10-16T03:41:49;13.20;99.90
16321;DHT22;8269;50.990;4.494;2022-10-16T03:44:14;13.20;99.90
16321;DHT22;8269;50.990;4.494;2022-10-16T03:46:40;13.10;99.90
16321;DHT22;8269;50.990;4.494;2022-10-16T03:49:06;13.10;99.90
16321;DHT22;8269;50.990;4.494;2022-10-16T03:51:31;13.10;99.90
16321;DHT22;8269;50.990;4.494;2022-10-16T03:53:57;13.10;99.90
16321;DHT22;8269;50.990;4.494;2022-10-16T03:56:22;13.10;99.90
16321;DHT22;8269;50.990;4.494;2022-10-16T03:58:48;13.10;99.90
16321;DHT22;8269;50.990;4.494;2022-10-16T04:01:14;13.10;99.90
16321;DHT22;8269;50.990;4.494;2022-10-16T04:03:39;13.10;99.90
16321;DHT22;8269;50.990;4.494;2022-10-16T04:06:05;13.10;99.90
16321;DHT22;8269;50.990;4.494;2022-10-16T04:08:31;13.00;99.90
16321;DHT22;8269;50.990;4.494;2022-10-16T04:10:59;13.00;99.90
16321;DHT22;8269;50.990;4.494;2022-10-16T04:13:25;12.90;99.90
16321;DHT22;8269;50.990;4.494;2022-10-16T04:15:50;13.00;99.90
16321;DHT22;8269;50.990;4.494;2022-10-16T04:18:16;12.90;99.90
16321;DHT22;8269;50.990;4.494;2022-10-16T04:20:41;12.80;99.90
16321;DHT22;8269;50.990;4.494;2022-10-16T04:23:07;12.80;99.90
16321;DHT22;8269;50.990;4.494;2022-10-16T04:25:33;12.80;99.90
16321;DHT22;8269;50.990;4.494;2022-10-16T04:27:58;12.90;99.90
16321;DHT22;8269;50.990;4.494;2022-10-16T04:30:25;12.90;99.90
16321;DHT22;8269;50.990;4.494;2022-10-16T04:32:51;12.80;99.90
16321;DHT22;8269;50.990;4.494;2022-10-16T04:35:18;12.80;99.90
16321;DHT22;8269;50.990;4.494;2022-10-16T04:37:44;12.80;99.90
16321;DHT22;8269;50.990;4.494;2022-10-16T04:40:10;12.70;99.90
16321;DHT22;8269;50.990;4.494;2022-10-16T04:42:35;12.70;99.90
16321;DHT22;8269;50.990;4.494;2022-10-16T04:45:01;12.70;99.90
16321;DHT22;8269;50.990;4.494;2022-10-16T04:47:27;12.70;99.90
16321;DHT22;8269;50.990;4.494;2022-10-16T04:49:52;12.70;99.90
16321;DHT22;8269;50.990;4.494;2022-10-16T04:52:18;12.70;99.90
16321;DHT22;8269;50.990;4.494;2022-10-16T04:54:44;12.70;99.90
16321;DHT22;8269;50.990;4.494;2022-10-16T04:57:11;12.70;99.90
16321;DHT22;8269;50.990;4.494;2022-10-16T04:59:36;12.60;99.90
16321;DHT22;8269;50.990;4.494;2022-10-16T05:02:02;12.60;99.90
16321;DHT22;8269;50.990;4.494;2022-10-16T05:04:28;12.60;99.90
16321;DHT22;8269;50.990;4.494;2022-10-16T05:06:53;12.60;99.90
16321;DHT22;8269;50.990;4.494;2022-10-16T05:09:19;12.70;99.90
16321;DHT22;8269;50.990;4.494;2022-10-16T05:11:44;12.60;99.90
16321;DHT22;8269;50.990;4.494;2022-10-16T05:14:10;12.60;99.90
16321;DHT22;8269;50.990;4.494;2022-10-16T05:16:36;12.70;99.90
16321;DHT22;8269;50.990;4.494;2022-10-16T05:19:01;12.70;99.90
16321;DHT22;8269;50.990;4.494;2022-10-16T05:21:27;12.70;99.90
16321;DHT22;8269;50.990;4.494;2022-10-16T05:23:53;12.60;99.90
16321;DHT22;8269;50.990;4.494;2022-10-16T05:26:19;12.60;99.90
16321;DHT22;8269;50.990;4.494;2022-10-16T05:28:45;12.70;99.90
16321;DHT22;8269;50.990;4.494;2022-10-16T05:31:11;12.60;99.90
16321;DHT22;8269;50.990;4.494;2022-10-16T05:33:36;12.60;99.90
16321;DHT22;8269;50.990;4.494;2022-10-16T05:36:07;12.60;99.90
16321;DHT22;8269;50.990;4.494;2022-10-16T05:38:33;12.60;99.90
16321;DHT22;8269;50.990;4.494;2022-10-16T05:40:59;12.50;99.90
16321;DHT22;8269;50.990;4.494;2022-10-16T05:43:27;12.50;99.90
16321;DHT22;8269;50.990;4.494;2022-10-16T05:45:57;12.60;99.90
16321;DHT22;8269;50.990;4.494;2022-10-16T05:48:23;12.60;99.90
16321;DHT22;8269;50.990;4.494;2022-10-16T05:50:59;12.60;99.90
16321;DHT22;8269;50.990;4.494;2022-10-16T05:53:26;12.50;99.90
16321;DHT22;8269;50.990;4.494;2022-10-16T05:55:53;12.50;99.90
16321;DHT22;8269;50.990;4.494;2022-10-16T05:58:19;12.50;99.90
16321;DHT22;8269;50.990;4.494;2022-10-16T06:00:44;12.60;99.90
16321;DHT22;8269;50.990;4.494;2022-10-16T06:03:10;12.50;99.90
16321;DHT22;8269;50.990;4.494;2022-10-16T06:05:35;12.60;99.90
16321;DHT22;8269;50.990;4.494;2022-10-16T06:08:01;12.50;99.90
16321;DHT22;8269;50.990;4.494;2022-10-16T06:10:27;12.50;99.90
16321;DHT22;8269;50.990;4.494;2022-10-16T06:12:54;12.40;99.90
16321;DHT22;8269;50.990;4.494;2022-10-16T06:15:19;12.40;99.90
16321;DHT22;8269;50.990;4.494;2022-10-16T06:22:37;12.60;99.90
16321;DHT22;8269;50.990;4.494;2022-10-16T06:25:03;12.70;99.90
16321;DHT22;8269;50.990;4.494;2022-10-16T06:27:28;12.80;99.90
16321;DHT22;8269;50.990;4.494;2022-10-16T06:29:54;12.80;99.90
16321;DHT22;8269;50.990;4.494;2022-10-16T06:32:19;12.80;99.90
16321;DHT22;8269;50.990;4.494;2022-10-16T06:34:46;12.80;99.90
16321;DHT22;8269;50.990;4.494;2022-10-16T06:37:11;12.90;99.90
16321;DHT22;8269;50.990;4.494;2022-10-16T06:39:37;13.00;99.90
16321;DHT22;8269;50.990;4.494;2022-10-16T06:42:02;13.10;99.90
16321;DHT22;8269;50.990;4.494;2022-10-16T06:44:28;13.10;99.90
16321;DHT22;8269;50.990;4.494;2022-10-16T06:46:53;13.20;99.90
16321;DHT22;8269;50.990;4.494;2022-10-16T06:49:19;13.20;99.90
16321;DHT22;8269;50.990;4.494;2022-10-16T06:51:48;13.30;99.90
16321;DHT22;8269;50.990;4.494;2022-10-16T06:54:15;13.30;99.90
16321;DHT22;8269;50.990;4.494;2022-10-16T06:56:40;13.30;99.90
16321;DHT22;8269;50.990;4.494;2022-10-16T06:59:06;13.40;99.90
16321;DHT22;8269;50.990;4.494;2022-10-16T07:01:32;13.50;99.90
16321;DHT22;8269;50.990;4.494;2022-10-16T07:03:58;13.50;99.90
16321;DHT22;8269;50.990;4.494;2022-10-16T07:06:25;13.70;99.90
16321;DHT22;8269;50.990;4.494;2022-10-16T07:08:51;13.70;99.90
16321;DHT22;8269;50.990;4.494;2022-10-16T07:11:18;13.90;99.90
16321;DHT22;8269;50.990;4.494;2022-10-16T07:13:45;13.80;99.90
16321;DHT22;8269;50.990;4.494;2022-10-16T07:16:14;13.80;99.90
16321;DHT22;8269;50.990;4.494;2022-10-16T07:18:41;13.80;99.90
16321;DHT22;8269;50.990;4.494;2022-10-16T07:21:13;13.80;99.90
16321;DHT22;8269;50.990;4.494;2022-10-16T07:23:40;13.80;99.90
16321;DHT22;8269;50.990;4.494;2022-10-16T07:26:06;13.80;99.90
16321;DHT22;8269;50.990;4.494;2022-10-16T07:28:32;13.80;99.90
16321;DHT22;8269;50.990;4.494;2022-10-16T07:31:03;13.80;99.90
16321;DHT22;8269;50.990;4.494;2022-10-16T07:33:30;13.90;99.90
16321;DHT22;8269;50.990;4.494;2022-10-16T07:35:55;14.00;99.90
16321;DHT22;8269;50.990;4.494;2022-10-16T07:38:22;14.30;99.90
16321;DHT22;8269;50.990;4.494;2022-10-16T07:43:14;14.70;99.90
16321;DHT22;8269;50.990;4.494;2022-10-16T07:45:49;14.90;99.90
16321;DHT22;8269;50.990;4.494;2022-10-16T07:48:16;15.10;99.90
16321;DHT22;8269;50.990;4.494;2022-10-16T07:50:42;15.30;99.90
16321;DHT22;8269;50.990;4.494;2022-10-16T07:53:10;15.20;99.90
16321;DHT22;8269;50.990;4.494;2022-10-16T07:55:36;15.30;99.90
16321;DHT22;8269;50.990;4.494;2022-10-16T08:05:21;15.80;99.90
16321;DHT22;8269;50.990;4.494;2022-10-16T08:10:17;15.80;99.90
16321;DHT22;8269;50.990;4.494;2022-10-16T08:12:43;15.80;99.90
16321;DHT22;8269;50.990;4.494;2022-10-16T08:15:09;16.00;99.90
16321;DHT22;8269;50.990;4.494;2022-10-16T08:17:35;16.00;99.90
16321;DHT22;8269;50.990;4.494;2022-10-16T08:20:01;15.90;99.90
16321;DHT22;8269;50.990;4.494;2022-10-16T08:22:27;16.00;99.90
16321;DHT22;8269;50.990;4.494;2022-10-16T08:24:52;16.10;99.90
16321;DHT22;8269;50.990;4.494;2022-10-16T08:27:18;16.00;99.90
16321;DHT22;8269;50.990;4.494;2022-10-16T08:29:43;16.30;99.90
16321;DHT22;8269;50.990;4.494;2022-10-16T08:32:09;16.30;99.90
16321;DHT22;8269;50.990;4.494;2022-10-16T08:34:35;16.50;99.90
16321;DHT22;8269;50.990;4.494;2022-10-16T08:37:00;16.60;99.90
16321;DHT22;8269;50.990;4.494;2022-10-16T08:39:26;16.70;99.90
16321;DHT22;8269;50.990;4.494;2022-10-16T08:42:06;16.80;99.90
16321;DHT22;8269;50.990;4.494;2022-10-16T08:50:30;16.50;99.90
16321;DHT22;8269;50.990;4.494;2022-10-16T08:52:57;16.50;99.90
16321;DHT22;8269;50.990;4.494;2022-10-16T08:55:48;16.50;99.90
16321;DHT22;8269;50.990;4.494;2022-10-16T08:58:35;16.30;99.90
16321;DHT22;8269;50.990;4.494;2022-10-16T09:01:03;16.20;99.90
16321;DHT22;8269;50.990;4.494;2022-10-16T09:06:44;16.10;99.90
16321;DHT22;8269;50.990;4.494;2022-10-16T09:12:21;16.10;99.90
16321;DHT22;8269;50.990;4.494;2022-10-16T09:20:48;16.30;99.90
16321;DHT22;8269;50.990;4.494;2022-10-16T09:22:45;16.40;99.90
16321;DHT22;8269;50.990;4.494;2022-10-16T09:25:17;16.40;99.90
16321;DHT22;8269;50.990;4.494;2022-10-16T09:27:47;16.50;99.90
16321;DHT22;8269;50.990;4.494;2022-10-16T09:30:15;16.50;99.90
16321;DHT22;8269;50.990;4.494;2022-10-16T09:32:43;16.60;99.90
16321;DHT22;8269;50.990;4.494;2022-10-16T09:38:00;16.70;99.90
16321;DHT22;8269;50.990;4.494;2022-10-16T09:40:38;16.80;99.90
16321;DHT22;8269;50.990;4.494;2022-10-16T09:45:59;17.10;99.90
16321;DHT22;8269;50.990;4.494;2022-10-16T09:48:28;17.10;99.90
16321;DHT22;8269;50.990;4.494;2022-10-16T09:51:00;17.10;99.90
16321;DHT22;8269;50.990;4.494;2022-10-16T09:53:47;17.10;99.90
16321;DHT22;8269;50.990;4.494;2022-10-16T09:56:23;17.20;99.90
16321;DHT22;8269;50.990;4.494;2022-10-16T09:58:50;17.20;99.90
16321;DHT22;8269;50.990;4.494;2022-10-16T10:01:17;17.20;99.90
16321;DHT22;8269;50.990;4.494;2022-10-16T10:03:44;17.20;99.90
16321;DHT22;8269;50.990;4.494;2022-10-16T10:09:04;17.20;99.90
16321;DHT22;8269;50.990;4.494;2022-10-16T10:16:49;17.50;99.90
16321;DHT22;8269;50.990;4.494;2022-10-16T10:19:23;17.60;99.90
16321;DHT22;8269;50.990;4.494;2022-10-16T10:21:50;17.70;99.90
16321;DHT22;8269;50.990;4.494;2022-10-16T10:24:18;17.80;99.90
16321;DHT22;8269;50.990;4.494;2022-10-16T10:26:59;17.90;99.90
16321;DHT22;8269;50.990;4.494;2022-10-16T10:29:46;18.10;99.90
16321;DHT22;8269;50.990;4.494;2022-10-16T10:37:57;18.40;99.90
16321;DHT22;8269;50.990;4.494;2022-10-16T10:46:04;18.00;99.90
16321;DHT22;8269;50.990;4.494;2022-10-16T10:52:00;17.90;99.90
16321;DHT22;8269;50.990;4.494;2022-10-16T10:54:37;18.00;99.90
16321;DHT22;8269;50.990;4.494;2022-10-16T10:57:36;18.20;99.90
16321;DHT22;8269;50.990;4.494;2022-10-16T11:00:21;18.30;99.90
16321;DHT22;8269;50.990;4.494;2022-10-16T11:05:31;18.50;99.90
16321;DHT22;8269;50.990;4.494;2022-10-16T11:08:02;18.60;99.90
16321;DHT22;8269;50.990;4.494;2022-10-16T11:10:52;18.70;99.90
16321;DHT22;8269;50.990;4.494;2022-10-16T11:13:51;18.70;99.90
16321;DHT22;8269;50.990;4.494;2022-10-16T11:16:31;18.60;99.90
16321;DHT22;8269;50.990;4.494;2022-10-16T11:19:08;18.50;99.90
16321;DHT22;8269;50.990;4.494;2022-10-16T11:21:43;18.20;99.90
16321;DHT22;8269;50.990;4.494;2022-10-16T11:24:35;18.10;99.90
16321;DHT22;8269;50.990;4.494;2022-10-16T11:27:07;18.10;99.90
16321;DHT22;8269;50.990;4.494;2022-10-16T11:29:35;18.20;99.90
16321;DHT22;8269;50.990;4.494;2022-10-16T11:35:21;18.30;99.90
16321;DHT22;8269;50.990;4.494;2022-10-16T11:37:50;18.30;99.90
16321;DHT22;8269;50.990;4.494;2022-10-16T11:40:25;18.20;99.90
16321;DHT22;8269;50.990;4.494;2022-10-16T11:43:22;18.20;99.90
16321;DHT22;8269;50.990;4.494;2022-10-16T11:45:53;18.40;99.90
16321;DHT22;8269;50.990;4.494;2022-10-16T11:48:55;18.50;99.90
16321;DHT22;8269;50.990;4.494;2022-10-16T11:54:22;18.70;99.90
16321;DHT22;8269;50.990;4.494;2022-10-16T11:56:53;18.80;99.90
16321;DHT22;8269;50.990;4.494;2022-10-16T11:59:40;18.80;99.90
16321;DHT22;8269;50.990;4.494;2022-10-16T12:02:28;18.90;99.90
16321;DHT22;8269;50.990;4.494;2022-10-16T12:05:31;18.90;99.90
16321;DHT22;8269;50.990;4.494;2022-10-16T12:08:10;18.90;99.90
16321;DHT22;8269;50.990;4.494;2022-10-16T12:10:37;18.70;99.90
16321;DHT22;8269;50.990;4.494;2022-10-16T12:13:27;18.60;99.90
16321;DHT22;8269;50.990;4.494;2022-10-16T12:16:22;18.50;99.90
16321;DHT22;8269;50.990;4.494;2022-10-16T12:18:49;18.50;99.90
16321;DHT22;8269;50.990;4.494;2022-10-16T12:21:16;18.50;99.90
16321;DHT22;8269;50.990;4.494;2022-10-16T12:23:55;18.50;99.90
16321;DHT22;8269;50.990;4.494;2022-10-16T12:26:30;18.60;99.90
16321;DHT22;8269;50.990;4.494;2022-10-16T12:31:44;18.90;99.90
16321;DHT22;8269;50.990;4.494;2022-10-16T12:34:29;19.10;99.90
16321;DHT22;8269;50.990;4.494;2022-10-16T12:39:35;19.40;99.90
16321;DHT22;8269;50.990;4.494;2022-10-16T12:42:04;19.30;99.80
16321;DHT22;8269;50.990;4.494;2022-10-16T12:44:34;19.40;99.20
16321;DHT22;8269;50.990;4.494;2022-10-16T12:47:01;19.40;99.00
16321;DHT22;8269;50.990;4.494;2022-10-16T12:49:38;19.40;98.90
16321;DHT22;8269;50.990;4.494;2022-10-16T12:52:22;19.40;98.50
16321;DHT22;8269;50.990;4.494;2022-10-16T12:54:49;19.30;97.70
16321;DHT22;8269;50.990;4.494;2022-10-16T13:16:48;18.80;99.90
16321;DHT22;8269;50.990;4.494;2022-10-16T13:22:03;18.70;99.90
16321;DHT22;8269;50.990;4.494;2022-10-16T13:30:23;18.50;99.90
16321;DHT22;8269;50.990;4.494;2022-10-16T13:32:48;18.50;99.90
16321;DHT22;8269;50.990;4.494;2022-10-16T13:35:27;18.50;99.90
16321;DHT22;8269;50.990;4.494;2022-10-16T13:38:11;18.50;99.90
16321;DHT22;8269;50.990;4.494;2022-10-16T13:40:49;18.50;99.60
16321;DHT22;8269;50.990;4.494;2022-10-16T13:43:19;18.60;99.90
16321;DHT22;8269;50.990;4.494;2022-10-16T13:46:07;18.70;99.90
16321;DHT22;8269;50.990;4.494;2022-10-16T13:48:36;18.90;99.90
16321;DHT22;8269;50.990;4.494;2022-10-16T13:51:04;19.00;99.30
16321;DHT22;8269;50.990;4.494;2022-10-16T13:53:35;19.10;99.60
16321;DHT22;8269;50.990;4.494;2022-10-16T13:56:05;19.10;99.00
16321;DHT22;8269;50.990;4.494;2022-10-16T13:58:31;19.00;99.50
16321;DHT22;8269;50.990;4.494;2022-10-16T14:01:00;19.00;99.90
16321;DHT22;8269;50.990;4.494;2022-10-16T14:03:27;19.00;99.90
16321;DHT22;8269;50.990;4.494;2022-10-16T14:06:00;18.90;99.90
16321;DHT22;8269;50.990;4.494;2022-10-16T14:08:27;18.90;99.90
16321;DHT22;8269;50.990;4.494;2022-10-16T14:10:56;19.00;99.90
16321;DHT22;8269;50.990;4.494;2022-10-16T14:13:44;19.00;99.90
16321;DHT22;8269;50.990;4.494;2022-10-16T14:16:20;18.90;99.90
16321;DHT22;8269;50.990;4.494;2022-10-16T14:18:55;18.80;99.90
16321;DHT22;8269;50.990;4.494;2022-10-16T14:21:21;18.80;99.90
16321;DHT22;8269;50.990;4.494;2022-10-16T14:23:47;18.80;99.90
16321;DHT22;8269;50.990;4.494;2022-10-16T14:26:15;18.80;99.90
16321;DHT22;8269;50.990;4.494;2022-10-16T14:28:43;18.80;99.90
16321;DHT22;8269;50.990;4.494;2022-10-16T14:31:42;18.90;99.90
16321;DHT22;8269;50.990;4.494;2022-10-16T14:34:31;18.90;99.90
16321;DHT22;8269;50.990;4.494;2022-10-16T14:37:01;19.00;99.90
16321;DHT22;8269;50.990;4.494;2022-10-16T14:39:32;19.00;99.90
16321;DHT22;8269;50.990;4.494;2022-10-16T14:41:59;18.90;99.90
16321;DHT22;8269;50.990;4.494;2022-10-16T14:44:31;18.80;99.90
16321;DHT22;8269;50.990;4.494;2022-10-16T14:46:57;18.60;99.90
16321;DHT22;8269;50.990;4.494;2022-10-16T14:49:25;18.40;99.90
16321;DHT22;8269;50.990;4.494;2022-10-16T14:51:53;18.30;99.90
16321;DHT22;8269;50.990;4.494;2022-10-16T14:54:19;18.20;99.90
16321;DHT22;8269;50.990;4.494;2022-10-16T15:02:44;18.00;99.90
16321;DHT22;8269;50.990;4.494;2022-10-16T15:04:45;18.00;99.90
16321;DHT22;8269;50.990;4.494;2022-10-16T15:07:11;18.10;99.90
16321;DHT22;8269;50.990;4.494;2022-10-16T15:09:36;18.10;99.90
16321;DHT22;8269;50.990;4.494;2022-10-16T15:12:02;18.10;99.90
16321;DHT22;8269;50.990;4.494;2022-10-16T15:14:27;18.10;99.90
16321;DHT22;8269;50.990;4.494;2022-10-16T15:16:53;18.10;99.90
16321;DHT22;8269;50.990;4.494;2022-10-16T15:19:18;18.10;99.90
16321;DHT22;8269;50.990;4.494;2022-10-16T15:21:45;18.10;99.90
16321;DHT22;8269;50.990;4.494;2022-10-16T15:24:13;18.00;99.90
16321;DHT22;8269;50.990;4.494;2022-10-16T15:26:40;18.00;99.90
16321;DHT22;8269;50.990;4.494;2022-10-16T15:29:05;17.90;99.90
16321;DHT22;8269;50.990;4.494;2022-10-16T15:31:31;17.90;99.90
16321;DHT22;8269;50.990;4.494;2022-10-16T15:33:57;17.80;99.90
16321;DHT22;8269;50.990;4.494;2022-10-16T15:36:34;17.90;99.90
16321;DHT22;8269;50.990;4.494;2022-10-16T15:39:05;17.80;99.90
16321;DHT22;8269;50.990;4.494;2022-10-16T15:41:31;17.90;99.90
16321;DHT22;8269;50.990;4.494;2022-10-16T15:43:57;17.90;99.90
16321;DHT22;8269;50.990;4.494;2022-10-16T15:46:23;17.90;99.90
16321;DHT22;8269;50.990;4.494;2022-10-16T15:48:50;17.70;99.90
16321;DHT22;8269;50.990;4.494;2022-10-16T15:51:17;17.70;99.90
16321;DHT22;8269;50.990;4.494;2022-10-16T15:53:43;17.60;99.90
16321;DHT22;8269;50.990;4.494;2022-10-16T15:56:12;17.50;99.90
16321;DHT22;8269;50.990;4.494;2022-10-16T15:58:38;17.50;99.90
16321;DHT22;8269;50.990;4.494;2022-10-16T16:01:04;17.40;99.90
16321;DHT22;8269;50.990;4.494;2022-10-16T16:03:31;17.40;99.90
16321;DHT22;8269;50.990;4.494;2022-10-16T16:05:58;17.30;99.90
16321;DHT22;8269;50.990;4.494;2022-10-16T16:08:24;17.20;99.90
16321;DHT22;8269;50.990;4.494;2022-10-16T16:11:07;17.20;99.90
16321;DHT22;8269;50.990;4.494;2022-10-16T16:13:33;17.20;99.90
16321;DHT22;8269;50.990;4.494;2022-10-16T16:15:59;17.10;99.90
16321;DHT22;8269;50.990;4.494;2022-10-16T16:18:25;17.10;99.90
16321;DHT22;8269;50.990;4.494;2022-10-16T16:20:52;17.00;99.90
16321;DHT22;8269;50.990;4.494;2022-10-16T16:23:18;17.00;99.90
16321;DHT22;8269;50.990;4.494;2022-10-16T16:25:45;16.90;99.90
16321;DHT22;8269;50.990;4.494;2022-10-16T16:28:10;16.90;99.90
16321;DHT22;8269;50.990;4.494;2022-10-16T16:30:40;16.90;99.90
16321;DHT22;8269;50.990;4.494;2022-10-16T16:33:06;16.80;99.90
16321;DHT22;8269;50.990;4.494;2022-10-16T16:35:32;16.80;99.90
16321;DHT22;8269;50.990;4.494;2022-10-16T16:37:57;16.80;99.90
16321;DHT22;8269;50.990;4.494;2022-10-16T16:40:23;16.80;99.90
16321;DHT22;8269;50.990;4.494;2022-10-16T16:42:49;16.80;99.90
16321;DHT22;8269;50.990;4.494;2022-10-16T16:45:15;16.80;99.90
16321;DHT22;8269;50.990;4.494;2022-10-16T16:47:40;16.70;99.90
16321;DHT22;8269;50.990;4.494;2022-10-16T16:50:06;16.70;99.90
16321;DHT22;8269;50.990;4.494;2022-10-16T16:52:34;16.60;99.90
16321;DHT22;8269;50.990;4.494;2022-10-16T16:54:59;16.50;99.90
16321;DHT22;8269;50.990;4.494;2022-10-16T16:57:26;16.60;99.90
16321;DHT22;8269;50.990;4.494;2022-10-16T16:59:52;16.70;99.90
16321;DHT22;8269;50.990;4.494;2022-10-16T17:02:17;16.50;99.90
16321;DHT22;8269;50.990;4.494;2022-10-16T17:04:43;16.40;99.90
16321;DHT22;8269;50.990;4.494;2022-10-16T17:07:08;16.40;99.90
16321;DHT22;8269;50.990;4.494;2022-10-16T17:09:34;16.40;99.90
16321;DHT22;8269;50.990;4.494;2022-10-16T17:12:00;16.30;99.90
16321;DHT22;8269;50.990;4.494;2022-10-16T17:14:26;16.40;99.90
16321;DHT22;8269;50.990;4.494;2022-10-16T17:16:52;16.40;99.90
16321;DHT22;8269;50.990;4.494;2022-10-16T17:19:19;16.30;99.90
16321;DHT22;8269;50.990;4.494;2022-10-16T17:21:49;16.20;99.90
16321;DHT22;8269;50.990;4.494;2022-10-16T17:24:15;16.30;99.90
16321;DHT22;8269;50.990;4.494;2022-10-16T17:26:41;16.30;99.90
16321;DHT22;8269;50.990;4.494;2022-10-16T17:29:12;16.20;99.90
16321;DHT22;8269;50.990;4.494;2022-10-16T17:31:37;16.20;99.90
16321;DHT22;8269;50.990;4.494;2022-10-16T17:34:06;16.20;99.90
16321;DHT22;8269;50.990;4.494;2022-10-16T17:36:34;16.10;99.90
16321;DHT22;8269;50.990;4.494;2022-10-16T17:39:05;16.10;99.90
16321;DHT22;8269;50.990;4.494;2022-10-16T17:41:32;16.00;99.90
16321;DHT22;8269;50.990;4.494;2022-10-16T17:43:58;15.90;99.90
16321;DHT22;8269;50.990;4.494;2022-10-16T17:46:24;15.90;99.90
16321;DHT22;8269;50.990;4.494;2022-10-16T17:48:52;15.90;99.90
16321;DHT22;8269;50.990;4.494;2022-10-16T17:51:23;15.90;99.90
16321;DHT22;8269;50.990;4.494;2022-10-16T17:53:55;15.80;99.90
16321;DHT22;8269;50.990;4.494;2022-10-16T17:56:21;15.70;99.90
16321;DHT22;8269;50.990;4.494;2022-10-16T17:58:53;15.70;99.90
16321;DHT22;8269;50.990;4.494;2022-10-16T18:01:24;15.60;99.90
16321;DHT22;8269;50.990;4.494;2022-10-16T18:03:52;15.50;99.90
16321;DHT22;8269;50.990;4.494;2022-10-16T18:06:19;15.50;99.90
16321;DHT22;8269;50.990;4.494;2022-10-16T18:08:45;15.40;99.90